sensor_id;sensor_type;location;lat;lon;timestamp;temperature;humidity
9987;DHT22;5033;46.310;11.214;2023-06-22T00:00:05;24.60;99.90
9987;DHT22;5033;46.310;11.214;2023-06-22T00:02:37;24.50;99.90
9987;DHT22;5033;46.310;11.214;2023-06-22T00:05:05;24.60;99.90
9987;DHT22;5033;46.310;11.214;2023-06-22T00:07:32;24.60;99.90
9987;DHT22;5033;46.310;11.214;2023-06-22T00:09:59;24.60;99.90
9987;DHT22;5033;46.310;11.214;2023-06-22T00:12:27;24.40;99.90
9987;DHT22;5033;46.310;11.214;2023-06-22T00:14:54;24.20;99.90
9987;DHT22;5033;46.310;11.214;2023-06-22T00:17:21;24.10;99.90
9987;DHT22;5033;46.310;11.214;2023-06-22T00:19:48;24.00;99.90
9987;DHT22;5033;46.310;11.214;2023-06-22T00:22:19;24.10;99.90
9987;DHT22;5033;46.310;11.214;2023-06-22T00:24:47;24.10;99.90
9987;DHT22;5033;46.310;11.214;2023-06-22T00:27:14;24.20;99.90
9987;DHT22;5033;46.310;11.214;2023-06-22T00:29:42;24.10;99.90
9987;DHT22;5033;46.310;11.214;2023-06-22T00:32:09;24.10;99.90
9987;DHT22;5033;46.310;11.214;2023-06-22T00:34:36;24.10;99.90
9987;DHT22;5033;46.310;11.214;2023-06-22T00:37:03;24.00;99.90
9987;DHT22;5033;46.310;11.214;2023-06-22T00:39:30;24.00;99.90
9987;DHT22;5033;46.310;11.214;2023-06-22T00:41:59;24.00;99.90
9987;DHT22;5033;46.310;11.214;2023-06-22T00:44:26;23.80;99.90
9987;DHT22;5033;46.310;11.214;2023-06-22T00:46:54;23.60;99.90
9987;DHT22;5033;46.310;11.214;2023-06-22T00:49:21;23.50;99.90
9987;DHT22;5033;46.310;11.214;2023-06-22T00:51:48;23.50;99.90
9987;DHT22;5033;46.310;11.214;2023-06-22T00:54:15;23.40;99.90
9987;DHT22;5033;46.310;11.214;2023-06-22T00:56:50;23.50;99.90
9987;DHT22;5033;46.310;11.214;2023-06-22T00:59:18;23.50;99.90
9987;DHT22;5033;46.310;11.214;2023-06-22T01:01:45;23.60;99.90
9987;DHT22;5033;46.310;11.214;2023-06-22T01:04:13;23.80;99.90
9987;DHT22;5033;46.310;11.214;2023-06-22T01:09:32;23.90;99.90
9987;DHT22;5033;46.310;11.214;2023-06-22T01:12:04;23.90;99.90
9987;DHT22;5033;46.310;11.214;2023-06-22T01:14:37;24.00;99.90
9987;DHT22;5033;46.310;11.214;2023-06-22T01:17:05;24.00;99.90
9987;DHT22;5033;46.310;11.214;2023-06-22T01:19:43;24.00;99.90
9987;DHT22;5033;46.310;11.214;2023-06-22T01:22:13;24.00;99.90
9987;DHT22;5033;46.310;11.214;2023-06-22T01:24:48;24.00;99.90
9987;DHT22;5033;46.310;11.214;2023-06-22T01:27:28;24.00;99.90
9987;DHT22;5033;46.310;11.214;2023-06-22T01:30:02;24.00;99.90
9987;DHT22;5033;46.310;11.214;2023-06-22T01:32:33;24.00;99.90
9987;DHT22;5033;46.310;11.214;2023-06-22T01:35:01;23.90;99.90
9987;DHT22;5033;46.310;11.214;2023-06-22T01:37:29;23.90;99.90
9987;DHT22;5033;46.310;11.214;2023-06-22T01:39:58;23.90;99.90
9987;DHT22;5033;46.310;11.214;2023-06-22T01:42:26;23.90;99.90
9987;DHT22;5033;46.310;11.214;2023-06-22T01:44:53;23.90;99.90
9987;DHT22;5033;46.310;11.214;2023-06-22T01:47:22;23.80;99.90
9987;DHT22;5033;46.310;11.214;2023-06-22T01:49:50;23.70;99.90
9987;DHT22;5033;46.310;11.214;2023-06-22T01:52:18;23.80;99.90
9987;DHT22;5033;46.310;11.214;2023-06-22T01:54:46;23.70;99.90
9987;DHT22;5033;46.310;11.214;2023-06-22T01:57:13;23.70;99.90
9987;DHT22;5033;46.310;11.214;2023-06-22T01:59:48;23.60;99.90
9987;DHT22;5033;46.310;11.214;2023-06-22T02:02:22;23.70;99.90
9987;DHT22;5033;46.310;11.214;2023-06-22T02:04:57;23.70;99.90
9987;DHT22;5033;46.310;11.214;2023-06-22T02:07:28;23.70;99.90
9987;DHT22;5033;46.310;11.214;2023-06-22T02:09:58;23.70;99.90
9987;DHT22;5033;46.310;11.214;2023-06-22T02:12:26;23.70;99.90
9987;DHT22;5033;46.310;11.214;2023-06-22T02:14:55;23.80;99.90
9987;DHT22;5033;46.310;11.214;2023-06-22T02:17:24;23.80;99.90
9987;DHT22;5033;46.310;11.214;2023-06-22T02:19:52;23.80;99.90
9987;DHT22;5033;46.310;11.214;2023-06-22T02:22:19;23.80;99.90
9987;DHT22;5033;46.310;11.214;2023-06-22T02:24:46;23.80;99.90
9987;DHT22;5033;46.310;11.214;2023-06-22T02:27:13;23.80;99.90
9987;DHT22;5033;46.310;11.214;2023-06-22T02:29:40;23.80;99.90
9987;DHT22;5033;46.310;11.214;2023-06-22T02:32:07;23.80;99.90
9987;DHT22;5033;46.310;11.214;2023-06-22T02:34:35;23.60;99.90
9987;DHT22;5033;46.310;11.214;2023-06-22T02:37:03;23.50;99.90
9987;DHT22;5033;46.310;11.214;2023-06-22T02:39:30;23.50;99.90
9987;DHT22;5033;46.310;11.214;2023-06-22T02:41:57;23.50;99.90
9987;DHT22;5033;46.310;11.214;2023-06-22T02:44:24;23.50;99.90
9987;DHT22;5033;46.310;11.214;2023-06-22T02:46:51;23.50;99.90
9987;DHT22;5033;46.310;11.214;2023-06-22T02:49:19;23.50;99.90
9987;DHT22;5033;46.310;11.214;2023-06-22T02:51:48;23.50;99.90
9987;DHT22;5033;46.310;11.214;2023-06-22T02:54:15;23.50;99.90
9987;DHT22;5033;46.310;11.214;2023-06-22T02:56:43;23.60;99.90
9987;DHT22;5033;46.310;11.214;2023-06-22T02:59:10;23.60;99.90
9987;DHT22;5033;46.310;11.214;2023-06-22T03:01:37;23.60;99.90
9987;DHT22;5033;46.310;11.214;2023-06-22T03:04:05;23.70;99.90
9987;DHT22;5033;46.310;11.214;2023-06-22T03:06:33;23.70;99.90
9987;DHT22;5033;46.310;11.214;2023-06-22T03:09:02;23.70;99.90
9987;DHT22;5033;46.310;11.214;2023-06-22T03:11:30;23.70;99.90
9987;DHT22;5033;46.310;11.214;2023-06-22T03:13:57;23.70;99.90
9987;DHT22;5033;46.310;11.214;2023-06-22T03:16:24;23.70;99.90
9987;DHT22;5033;46.310;11.214;2023-06-22T03:18:51;23.60;99.90
9987;DHT22;5033;46.310;11.214;2023-06-22T03:21:19;23.60;99.90
9987;DHT22;5033;46.310;11.214;2023-06-22T03:23:46;23.60;99.90
9987;DHT22;5033;46.310;11.214;2023-06-22T03:26:16;23.50;99.90
9987;DHT22;5033;46.310;11.214;2023-06-22T03:28:44;23.60;99.90
9987;DHT22;5033;46.310;11.214;2023-06-22T03:31:10;23.50;99.90
9987;DHT22;5033;46.310;11.214;2023-06-22T03:33:37;23.50;99.90
9987;DHT22;5033;46.310;11.214;2023-06-22T03:36:04;23.50;99.90
9987;DHT22;5033;46.310;11.214;2023-06-22T03:38:32;23.60;99.90
9987;DHT22;5033;46.310;11.214;2023-06-22T03:40:59;23.60;99.90
9987;DHT22;5033;46.310;11.214;2023-06-22T03:43:27;23.60;99.90
9987;DHT22;5033;46.310;11.214;2023-06-22T03:45:54;23.60;99.90
9987;DHT22;5033;46.310;11.214;2023-06-22T03:48:21;23.60;99.90
9987;DHT22;5033;46.310;11.214;2023-06-22T03:50:48;23.60;99.90
9987;DHT22;5033;46.310;11.214;2023-06-22T03:53:14;23.70;99.90
9987;DHT22;5033;46.310;11.214;2023-06-22T03:55:48;23.70;99.90
9987;DHT22;5033;46.310;11.214;2023-06-22T03:58:16;23.70;99.90
9987;DHT22;5033;46.310;11.214;2023-06-22T04:00:45;23.70;99.90
9987;DHT22;5033;46.310;11.214;2023-06-22T04:03:13;23.70;99.90
9987;DHT22;5033;46.310;11.214;2023-06-22T04:05:40;23.70;99.90
9987;DHT22;5033;46.310;11.214;2023-06-22T04:08:07;23.70;99.90
9987;DHT22;5033;46.310;11.214;2023-06-22T04:10:34;23.80;99.90
9987;DHT22;5033;46.310;11.214;2023-06-22T04:13:01;23.80;99.90
9987;DHT22;5033;46.310;11.214;2023-06-22T04:15:28;23.80;99.90
9987;DHT22;5033;46.310;11.214;2023-06-22T04:17:56;23.80;99.90
9987;DHT22;5033;46.310;11.214;2023-06-22T04:20:23;23.90;99.90
9987;DHT22;5033;46.310;11.214;2023-06-22T04:22:52;23.90;99.90
9987;DHT22;5033;46.310;11.214;2023-06-22T04:25:19;23.90;99.90
9987;DHT22;5033;46.310;11.214;2023-06-22T04:27:47;24.00;99.90
9987;DHT22;5033;46.310;11.214;2023-06-22T04:30:14;24.00;99.90
9987;DHT22;5033;46.310;11.214;2023-06-22T04:32:42;24.00;99.90
9987;DHT22;5033;46.310;11.214;2023-06-22T04:35:11;24.10;99.90
9987;DHT22;5033;46.310;11.214;2023-06-22T04:37:39;24.10;99.90
9987;DHT22;5033;46.310;11.214;2023-06-22T04:40:06;24.10;99.90
9987;DHT22;5033;46.310;11.214;2023-06-22T04:42:34;24.10;99.90
9987;DHT22;5033;46.310;11.214;2023-06-22T04:45:02;24.10;99.90
9987;DHT22;5033;46.310;11.214;2023-06-22T04:47:30;24.10;99.90
9987;DHT22;5033;46.310;11.214;2023-06-22T04:49:57;24.20;99.90
9987;DHT22;5033;46.310;11.214;2023-06-22T04:52:25;24.20;99.90
9987;DHT22;5033;46.310;11.214;2023-06-22T04:54:52;24.20;99.90
9987;DHT22;5033;46.310;11.214;2023-06-22T04:57:25;24.20;99.90
9987;DHT22;5033;46.310;11.214;2023-06-22T04:59:58;24.30;99.90
9987;DHT22;5033;46.310;11.214;2023-06-22T05:02:32;24.30;99.90
9987;DHT22;5033;46.310;11.214;2023-06-22T05:04:59;24.30;99.90
9987;DHT22;5033;46.310;11.214;2023-06-22T05:07:27;24.40;99.90
9987;DHT22;5033;46.310;11.214;2023-06-22T05:09:54;24.40;99.90
9987;DHT22;5033;46.310;11.214;2023-06-22T05:12:21;24.50;99.90
9987;DHT22;5033;46.310;11.214;2023-06-22T05:14:48;24.50;99.90
9987;DHT22;5033;46.310;11.214;2023-06-22T05:17:15;24.60;99.90
9987;DHT22;5033;46.310;11.214;2023-06-22T05:19:45;24.70;99.90
9987;DHT22;5033;46.310;11.214;2023-06-22T05:22:15;24.70;99.90
9987;DHT22;5033;46.310;11.214;2023-06-22T05:24:43;24.70;99.90
9987;DHT22;5033;46.310;11.214;2023-06-22T05:27:10;24.80;99.90
9987;DHT22;5033;46.310;11.214;2023-06-22T05:29:37;24.80;99.90
9987;DHT22;5033;46.310;11.214;2023-06-22T05:32:05;24.80;99.90
9987;DHT22;5033;46.310;11.214;2023-06-22T05:34:32;24.80;99.90
9987;DHT22;5033;46.310;11.214;2023-06-22T05:36:59;24.80;99.90
9987;DHT22;5033;46.310;11.214;2023-06-22T05:39:26;24.70;99.90
9987;DHT22;5033;46.310;11.214;2023-06-22T05:41:54;24.70;99.90
9987;DHT22;5033;46.310;11.214;2023-06-22T05:44:21;24.60;99.90
9987;DHT22;5033;46.310;11.214;2023-06-22T05:46:48;24.50;99.90
9987;DHT22;5033;46.310;11.214;2023-06-22T05:49:15;24.50;99.90
9987;DHT22;5033;46.310;11.214;2023-06-22T05:51:42;24.50;99.90
9987;DHT22;5033;46.310;11.214;2023-06-22T05:54:09;24.40;99.90
9987;DHT22;5033;46.310;11.214;2023-06-22T05:56:39;24.40;99.90
9987;DHT22;5033;46.310;11.214;2023-06-22T05:59:07;24.40;99.90
9987;DHT22;5033;46.310;11.214;2023-06-22T06:01:34;24.40;99.90
9987;DHT22;5033;46.310;11.214;2023-06-22T06:04:02;24.40;99.90
9987;DHT22;5033;46.310;11.214;2023-06-22T06:06:29;24.50;99.90
9987;DHT22;5033;46.310;11.214;2023-06-22T06:08:56;24.60;99.90
9987;DHT22;5033;46.310;11.214;2023-06-22T06:11:24;24.70;99.90
9987;DHT22;5033;46.310;11.214;2023-06-22T06:13:51;24.80;99.90
9987;DHT22;5033;46.310;11.214;2023-06-22T06:16:20;24.80;99.90
9987;DHT22;5033;46.310;11.214;2023-06-22T06:18:47;24.90;99.90
9987;DHT22;5033;46.310;11.214;2023-06-22T06:21:16;25.00;99.90
9987;DHT22;5033;46.310;11.214;2023-06-22T06:23:43;24.90;99.90
9987;DHT22;5033;46.310;11.214;2023-06-22T06:26:10;25.00;99.90
9987;DHT22;5033;46.310;11.214;2023-06-22T06:28:37;25.00;99.90
9987;DHT22;5033;46.310;11.214;2023-06-22T06:31:04;25.10;99.90
9987;DHT22;5033;46.310;11.214;2023-06-22T06:33:34;25.10;99.90
9987;DHT22;5033;46.310;11.214;2023-06-22T06:36:01;25.10;99.90
9987;DHT22;5033;46.310;11.214;2023-06-22T06:38:29;25.10;99.90
9987;DHT22;5033;46.310;11.214;2023-06-22T06:40:56;25.10;99.90
9987;DHT22;5033;46.310;11.214;2023-06-22T06:43:23;25.00;99.90
9987;DHT22;5033;46.310;11.214;2023-06-22T06:45:50;24.90;99.90
9987;DHT22;5033;46.310;11.214;2023-06-22T06:48:17;24.90;99.90
9987;DHT22;5033;46.310;11.214;2023-06-22T06:50:45;24.90;99.90
9987;DHT22;5033;46.310;11.214;2023-06-22T06:53:12;24.90;99.90
9987;DHT22;5033;46.310;11.214;2023-06-22T06:55:39;24.90;99.90
9987;DHT22;5033;46.310;11.214;2023-06-22T06:58:06;24.90;99.90
9987;DHT22;5033;46.310;11.214;2023-06-22T07:00:35;25.00;99.90
9987;DHT22;5033;46.310;11.214;2023-06-22T07:03:02;25.00;99.90
9987;DHT22;5033;46.310;11.214;2023-06-22T07:05:29;24.90;99.90
9987;DHT22;5033;46.310;11.214;2023-06-22T07:07:57;24.80;99.90
9987;DHT22;5033;46.310;11.214;2023-06-22T07:10:25;24.80;99.90
9987;DHT22;5033;46.310;11.214;2023-06-22T07:12:52;24.90;99.90
9987;DHT22;5033;46.310;11.214;2023-06-22T07:15:19;24.90;99.90
9987;DHT22;5033;46.310;11.214;2023-06-22T07:17:45;24.90;99.90
9987;DHT22;5033;46.310;11.214;2023-06-22T07:20:12;24.80;99.90
9987;DHT22;5033;46.310;11.214;2023-06-22T07:22:40;24.80;99.90
9987;DHT22;5033;46.310;11.214;2023-06-22T07:25:09;24.90;99.90
9987;DHT22;5033;46.310;11.214;2023-06-22T07:27:43;25.20;99.90
9987;DHT22;5033;46.310;11.214;2023-06-22T07:30:11;25.30;99.90
9987;DHT22;5033;46.310;11.214;2023-06-22T07:32:38;25.40;99.90
9987;DHT22;5033;46.310;11.214;2023-06-22T07:35:06;25.60;99.90
9987;DHT22;5033;46.310;11.214;2023-06-22T07:37:33;25.70;99.90
9987;DHT22;5033;46.310;11.214;2023-06-22T07:40:00;25.80;99.90
9987;DHT22;5033;46.310;11.214;2023-06-22T07:42:32;26.00;99.90
9987;DHT22;5033;46.310;11.214;2023-06-22T07:45:00;26.20;99.90
9987;DHT22;5033;46.310;11.214;2023-06-22T07:47:28;26.40;99.90
9987;DHT22;5033;46.310;11.214;2023-06-22T07:49:55;26.30;99.90
9987;DHT22;5033;46.310;11.214;2023-06-22T07:52:23;26.20;99.90
9987;DHT22;5033;46.310;11.214;2023-06-22T07:54:51;26.10;99.90
9987;DHT22;5033;46.310;11.214;2023-06-22T07:57:18;26.10;99.90
9987;DHT22;5033;46.310;11.214;2023-06-22T07:59:47;26.20;99.90
9987;DHT22;5033;46.310;11.214;2023-06-22T08:02:14;26.40;99.90
9987;DHT22;5033;46.310;11.214;2023-06-22T08:04:41;26.50;99.90
9987;DHT22;5033;46.310;11.214;2023-06-22T08:07:08;26.50;99.90
9987;DHT22;5033;46.310;11.214;2023-06-22T08:09:36;26.50;99.90
9987;DHT22;5033;46.310;11.214;2023-06-22T08:12:03;26.40;99.90
9987;DHT22;5033;46.310;11.214;2023-06-22T08:14:30;26.40;99.90
9987;DHT22;5033;46.310;11.214;2023-06-22T08:16:58;26.40;99.90
9987;DHT22;5033;46.310;11.214;2023-06-22T08:19:25;26.60;99.90
9987;DHT22;5033;46.310;11.214;2023-06-22T08:21:52;26.70;99.90
9987;DHT22;5033;46.310;11.214;2023-06-22T08:24:19;26.80;99.90
9987;DHT22;5033;46.310;11.214;2023-06-22T08:26:46;26.90;99.90
9987;DHT22;5033;46.310;11.214;2023-06-22T08:29:13;27.10;99.90
9987;DHT22;5033;46.310;11.214;2023-06-22T08:31:40;27.20;99.90
9987;DHT22;5033;46.310;11.214;2023-06-22T08:34:08;27.10;99.90
9987;DHT22;5033;46.310;11.214;2023-06-22T08:36:35;26.90;99.90
9987;DHT22;5033;46.310;11.214;2023-06-22T08:39:07;26.80;99.90
9987;DHT22;5033;46.310;11.214;2023-06-22T08:41:34;26.70;99.90
9987;DHT22;5033;46.310;11.214;2023-06-22T08:44:01;26.70;99.90
9987;DHT22;5033;46.310;11.214;2023-06-22T08:46:29;26.60;99.90
9987;DHT22;5033;46.310;11.214;2023-06-22T08:48:59;26.60;99.90
9987;DHT22;5033;46.310;11.214;2023-06-22T08:51:28;26.60;99.90
9987;DHT22;5033;46.310;11.214;2023-06-22T08:53:55;26.90;99.90
9987;DHT22;5033;46.310;11.214;2023-06-22T08:56:22;27.20;99.90
9987;DHT22;5033;46.310;11.214;2023-06-22T08:58:49;27.60;99.90
9987;DHT22;5033;46.310;11.214;2023-06-22T09:01:16;27.80;99.90
9987;DHT22;5033;46.310;11.214;2023-06-22T09:03:43;28.20;99.90
9987;DHT22;5033;46.310;11.214;2023-06-22T09:06:10;28.40;99.90
9987;DHT22;5033;46.310;11.214;2023-06-22T09:08:40;28.70;99.90
9987;DHT22;5033;46.310;11.214;2023-06-22T09:11:07;28.90;99.90
9987;DHT22;5033;46.310;11.214;2023-06-22T09:13:34;29.00;99.90
9987;DHT22;5033;46.310;11.214;2023-06-22T09:16:02;29.10;99.90
9987;DHT22;5033;46.310;11.214;2023-06-22T09:18:29;29.40;99.90
9987;DHT22;5033;46.310;11.214;2023-06-22T09:20:56;29.60;99.90
9987;DHT22;5033;46.310;11.214;2023-06-22T09:23:23;29.70;99.90
9987;DHT22;5033;46.310;11.214;2023-06-22T09:25:52;29.80;99.90
9987;DHT22;5033;46.310;11.214;2023-06-22T09:28:19;29.90;99.90
9987;DHT22;5033;46.310;11.214;2023-06-22T09:30:46;30.00;99.90
9987;DHT22;5033;46.310;11.214;2023-06-22T09:33:13;30.00;99.90
9987;DHT22;5033;46.310;11.214;2023-06-22T09:35:40;29.90;99.90
9987;DHT22;5033;46.310;11.214;2023-06-22T09:38:07;30.00;99.90
9987;DHT22;5033;46.310;11.214;2023-06-22T09:40:34;30.00;99.90
9987;DHT22;5033;46.310;11.214;2023-06-22T09:43:06;29.90;99.90
9987;DHT22;5033;46.310;11.214;2023-06-22T09:45:33;30.10;99.90
9987;DHT22;5033;46.310;11.214;2023-06-22T09:48:00;30.20;99.90
9987;DHT22;5033;46.310;11.214;2023-06-22T09:50:27;30.50;99.90
9987;DHT22;5033;46.310;11.214;2023-06-22T09:52:54;30.70;99.90
9987;DHT22;5033;46.310;11.214;2023-06-22T09:55:21;30.70;99.90
9987;DHT22;5033;46.310;11.214;2023-06-22T09:57:48;30.70;99.90
9987;DHT22;5033;46.310;11.214;2023-06-22T10:00:19;30.80;99.90
9987;DHT22;5033;46.310;11.214;2023-06-22T10:02:47;31.10;99.90
9987;DHT22;5033;46.310;11.214;2023-06-22T10:05:17;30.90;99.90
9987;DHT22;5033;46.310;11.214;2023-06-22T10:07:44;30.90;99.90
9987;DHT22;5033;46.310;11.214;2023-06-22T10:10:12;30.80;99.90
9987;DHT22;5033;46.310;11.214;2023-06-22T10:12:42;30.60;99.90
9987;DHT22;5033;46.310;11.214;2023-06-22T10:15:10;30.50;99.90
9987;DHT22;5033;46.310;11.214;2023-06-22T10:17:38;30.70;99.90
9987;DHT22;5033;46.310;11.214;2023-06-22T10:20:06;30.90;99.90
9987;DHT22;5033;46.310;11.214;2023-06-22T10:22:37;30.90;99.90
9987;DHT22;5033;46.310;11.214;2023-06-22T10:25:05;31.10;99.90
9987;DHT22;5033;46.310;11.214;2023-06-22T10:27:32;31.40;99.90
9987;DHT22;5033;46.310;11.214;2023-06-22T10:29:59;31.50;99.90
9987;DHT22;5033;46.310;11.214;2023-06-22T10:32:26;31.70;99.90
9987;DHT22;5033;46.310;11.214;2023-06-22T10:34:55;31.70;99.90
9987;DHT22;5033;46.310;11.214;2023-06-22T10:37:22;31.80;99.90
9987;DHT22;5033;46.310;11.214;2023-06-22T10:39:49;31.80;99.90
9987;DHT22;5033;46.310;11.214;2023-06-22T10:42:16;31.60;99.90
9987;DHT22;5033;46.310;11.214;2023-06-22T10:44:43;31.30;99.90
9987;DHT22;5033;46.310;11.214;2023-06-22T10:47:10;31.30;99.90
9987;DHT22;5033;46.310;11.214;2023-06-22T10:49:38;31.30;99.90
9987;DHT22;5033;46.310;11.214;2023-06-22T10:52:07;31.50;99.90
9987;DHT22;5033;46.310;11.214;2023-06-22T10:54:35;31.70;99.90
9987;DHT22;5033;46.310;11.214;2023-06-22T10:57:02;31.90;99.90
9987;DHT22;5033;46.310;11.214;2023-06-22T10:59:29;31.90;99.90
9987;DHT22;5033;46.310;11.214;2023-06-22T11:01:56;31.90;99.90
9987;DHT22;5033;46.310;11.214;2023-06-22T11:04:24;31.90;99.90
9987;DHT22;5033;46.310;11.214;2023-06-22T11:06:51;32.10;99.90
9987;DHT22;5033;46.310;11.214;2023-06-22T11:09:19;32.20;99.90
9987;DHT22;5033;46.310;11.214;2023-06-22T11:11:51;32.20;99.90
9987;DHT22;5033;46.310;11.214;2023-06-22T11:14:19;32.30;99.90
9987;DHT22;5033;46.310;11.214;2023-06-22T11:16:46;32.10;99.90
9987;DHT22;5033;46.310;11.214;2023-06-22T11:19:13;31.70;99.90
9987;DHT22;5033;46.310;11.214;2023-06-22T11:21:40;31.50;99.90
9987;DHT22;5033;46.310;11.214;2023-06-22T11:24:07;31.80;99.90
9987;DHT22;5033;46.310;11.214;2023-06-22T11:26:35;32.10;99.90
9987;DHT22;5033;46.310;11.214;2023-06-22T11:29:02;32.40;99.90
9987;DHT22;5033;46.310;11.214;2023-06-22T11:31:31;32.60;99.90
9987;DHT22;5033;46.310;11.214;2023-06-22T11:33:58;32.20;99.90
9987;DHT22;5033;46.310;11.214;2023-06-22T11:36:25;31.70;99.90
9987;DHT22;5033;46.310;11.214;2023-06-22T11:38:52;31.40;99.90
9987;DHT22;5033;46.310;11.214;2023-06-22T11:41:19;31.70;99.90
9987;DHT22;5033;46.310;11.214;2023-06-22T11:43:47;32.00;99.90
9987;DHT22;5033;46.310;11.214;2023-06-22T11:46:14;32.20;99.90
9987;DHT22;5033;46.310;11.214;2023-06-22T11:48:41;32.50;99.90
9987;DHT22;5033;46.310;11.214;2023-06-22T11:51:08;32.60;99.90
9987;DHT22;5033;46.310;11.214;2023-06-22T11:53:35;32.60;99.90
9987;DHT22;5033;46.310;11.214;2023-06-22T11:56:02;32.60;99.90
9987;DHT22;5033;46.310;11.214;2023-06-22T11:58:29;32.50;99.90
9987;DHT22;5033;46.310;11.214;2023-06-22T12:00:58;32.40;99.90
9987;DHT22;5033;46.310;11.214;2023-06-22T12:03:25;32.40;99.90
9987;DHT22;5033;46.310;11.214;2023-06-22T12:05:52;32.40;99.90
9987;DHT22;5033;46.310;11.214;2023-06-22T12:08:19;32.50;99.90
9987;DHT22;5033;46.310;11.214;2023-06-22T12:10:50;32.50;99.90
9987;DHT22;5033;46.310;11.214;2023-06-22T12:13:17;32.70;99.90
9987;DHT22;5033;46.310;11.214;2023-06-22T12:15:44;32.70;99.90
9987;DHT22;5033;46.310;11.214;2023-06-22T12:18:13;32.80;99.90
9987;DHT22;5033;46.310;11.214;2023-06-22T12:20:40;32.70;99.90
9987;DHT22;5033;46.310;11.214;2023-06-22T12:23:07;32.70;99.90
9987;DHT22;5033;46.310;11.214;2023-06-22T12:25:34;32.60;99.90
9987;DHT22;5033;46.310;11.214;2023-06-22T12:28:01;32.60;99.90
9987;DHT22;5033;46.310;11.214;2023-06-22T12:30:28;32.70;99.90
9987;DHT22;5033;46.310;11.214;2023-06-22T12:32:55;32.80;99.90
9987;DHT22;5033;46.310;11.214;2023-06-22T12:35:24;32.90;99.90
9987;DHT22;5033;46.310;11.214;2023-06-22T12:37:51;32.90;99.90
9987;DHT22;5033;46.310;11.214;2023-06-22T12:40:18;32.80;99.90
9987;DHT22;5033;46.310;11.214;2023-06-22T12:42:45;32.90;99.90
9987;DHT22;5033;46.310;11.214;2023-06-22T12:45:13;33.10;99.90
9987;DHT22;5033;46.310;11.214;2023-06-22T12:47:40;33.30;99.90
9987;DHT22;5033;46.310;11.214;2023-06-22T12:50:07;33.40;99.90
9987;DHT22;5033;46.310;11.214;2023-06-22T12:52:36;33.60;99.90
9987;DHT22;5033;46.310;11.214;2023-06-22T12:55:05;33.70;99.90
9987;DHT22;5033;46.310;11.214;2023-06-22T12:57:32;33.70;99.90
9987;DHT22;5033;46.310;11.214;2023-06-22T12:59:59;33.90;99.90
9987;DHT22;5033;46.310;11.214;2023-06-22T13:02:26;34.10;99.90
9987;DHT22;5033;46.310;11.214;2023-06-22T13:04:54;34.10;99.90
9987;DHT22;5033;46.310;11.214;2023-06-22T13:07:20;34.10;99.90
9987;DHT22;5033;46.310;11.214;2023-06-22T13:09:49;34.00;99.90
9987;DHT22;5033;46.310;11.214;2023-06-22T13:12:17;34.00;99.90
9987;DHT22;5033;46.310;11.214;2023-06-22T13:14:45;34.10;99.90
9987;DHT22;5033;46.310;11.214;2023-06-22T13:17:12;34.10;99.90
9987;DHT22;5033;46.310;11.214;2023-06-22T13:19:40;34.10;99.90
9987;DHT22;5033;46.310;11.214;2023-06-22T13:22:26;34.30;99.90
9987;DHT22;5033;46.310;11.214;2023-06-22T13:24:56;34.50;99.90
9987;DHT22;5033;46.310;11.214;2023-06-22T13:27:23;34.40;99.90
9987;DHT22;5033;46.310;11.214;2023-06-22T13:29:50;34.50;99.90
9987;DHT22;5033;46.310;11.214;2023-06-22T13:32:17;34.70;99.90
9987;DHT22;5033;46.310;11.214;2023-06-22T13:34:44;34.90;99.90
9987;DHT22;5033;46.310;11.214;2023-06-22T13:37:11;35.20;99.90
9987;DHT22;5033;46.310;11.214;2023-06-22T13:39:38;35.60;99.90
9987;DHT22;5033;46.310;11.214;2023-06-22T13:42:07;35.70;99.90
9987;DHT22;5033;46.310;11.214;2023-06-22T13:44:34;35.50;99.90
9987;DHT22;5033;46.310;11.214;2023-06-22T13:47:01;35.20;99.90
9987;DHT22;5033;46.310;11.214;2023-06-22T13:49:28;34.70;99.90
9987;DHT22;5033;46.310;11.214;2023-06-22T13:51:55;34.00;99.90
9987;DHT22;5033;46.310;11.214;2023-06-22T13:54:22;33.70;99.90
9987;DHT22;5033;46.310;11.214;2023-06-22T13:56:49;33.70;99.90
9987;DHT22;5033;46.310;11.214;2023-06-22T13:59:17;33.90;99.90
9987;DHT22;5033;46.310;11.214;2023-06-22T14:01:45;34.30;99.90
9987;DHT22;5033;46.310;11.214;2023-06-22T14:04:12;34.40;99.90
9987;DHT22;5033;46.310;11.214;2023-06-22T14:06:39;34.50;99.90
9987;DHT22;5033;46.310;11.214;2023-06-22T14:09:06;34.60;99.90
9987;DHT22;5033;46.310;11.214;2023-06-22T14:11:33;34.60;99.90
9987;DHT22;5033;46.310;11.214;2023-06-22T14:14:00;34.40;99.90
9987;DHT22;5033;46.310;11.214;2023-06-22T14:16:31;34.10;99.90
9987;DHT22;5033;46.310;11.214;2023-06-22T14:19:01;33.80;99.90
9987;DHT22;5033;46.310;11.214;2023-06-22T14:21:28;33.70;99.90
9987;DHT22;5033;46.310;11.214;2023-06-22T14:23:55;33.80;99.90
9987;DHT22;5033;46.310;11.214;2023-06-22T14:26:22;33.80;99.90
9987;DHT22;5033;46.310;11.214;2023-06-22T14:28:49;33.80;99.90
9987;DHT22;5033;46.310;11.214;2023-06-22T14:31:17;33.70;99.90
9987;DHT22;5033;46.310;11.214;2023-06-22T14:33:47;33.60;99.90
9987;DHT22;5033;46.310;11.214;2023-06-22T14:36:15;33.50;99.90
9987;DHT22;5033;46.310;11.214;2023-06-22T14:38:43;33.50;99.90
9987;DHT22;5033;46.310;11.214;2023-06-22T14:41:11;33.50;99.90
9987;DHT22;5033;46.310;11.214;2023-06-22T14:43:44;33.50;99.90
9987;DHT22;5033;46.310;11.214;2023-06-22T14:46:11;33.60;99.90
9987;DHT22;5033;46.310;11.214;2023-06-22T14:48:38;33.70;99.90
9987;DHT22;5033;46.310;11.214;2023-06-22T14:51:07;33.70;99.90
9987;DHT22;5033;46.310;11.214;2023-06-22T14:53:34;33.70;99.90
9987;DHT22;5033;46.310;11.214;2023-06-22T14:56:05;33.70;99.90
9987;DHT22;5033;46.310;11.214;2023-06-22T14:58:33;33.70;99.90
9987;DHT22;5033;46.310;11.214;2023-06-22T15:01:05;33.70;99.90
9987;DHT22;5033;46.310;11.214;2023-06-22T15:03:34;33.60;99.90
9987;DHT22;5033;46.310;11.214;2023-06-22T15:06:02;33.40;99.90
9987;DHT22;5033;46.310;11.214;2023-06-22T15:08:30;33.30;99.90
9987;DHT22;5033;46.310;11.214;2023-06-22T15:10:59;33.20;99.90
9987;DHT22;5033;46.310;11.214;2023-06-22T15:13:27;33.10;99.90
9987;DHT22;5033;46.310;11.214;2023-06-22T15:15:55;32.90;99.90
9987;DHT22;5033;46.310;11.214;2023-06-22T15:18:22;32.80;99.90
9987;DHT22;5033;46.310;11.214;2023-06-22T15:20:48;32.80;99.90
9987;DHT22;5033;46.310;11.214;2023-06-22T15:23:15;32.80;99.90
9987;DHT22;5033;46.310;11.214;2023-06-22T15:25:44;32.80;99.90
9987;DHT22;5033;46.310;11.214;2023-06-22T15:28:11;32.90;99.90
9987;DHT22;5033;46.310;11.214;2023-06-22T15:30:38;32.80;99.90
9987;DHT22;5033;46.310;11.214;2023-06-22T15:33:05;32.80;99.90
9987;DHT22;5033;46.310;11.214;2023-06-22T15:35:32;32.60;99.90
9987;DHT22;5033;46.310;11.214;2023-06-22T15:37:59;32.60;99.90
9987;DHT22;5033;46.310;11.214;2023-06-22T15:40:27;32.40;99.90
9987;DHT22;5033;46.310;11.214;2023-06-22T15:42:55;32.30;99.90
9987;DHT22;5033;46.310;11.214;2023-06-22T15:45:22;32.20;99.90
9987;DHT22;5033;46.310;11.214;2023-06-22T15:47:49;32.10;99.90
9987;DHT22;5033;46.310;11.214;2023-06-22T15:50:18;32.10;99.90